SLCB/CBB METAR and TAF weather

Enter ICAO airport designator
Station Type Date Time Source
SLCB METAR 2019/08/25 20:00 UTC NOAA

SLCB 252000Z 15016G29KT 8000 SCT033 FEW036CB BKN200 22/M01 Q1021


Station Type Date Time Source
SLCB Decoded METAR 2019/08/25 20:00 UTC NOAA

Station name not available
Aug 25, 2019 - 04:00 PM EDT / 2019.08.25 2000 UTC
Wind: from the SSE (150 degrees) at 18 MPH (16 KT) gusting to 33 MPH (29 KT):0
Visibility: 4 mile(s):0
Sky conditions: mostly cloudy
Weather: Cumulonimbus clouds observed
Temperature: 71 F (22 C)
Dew Point: 30 F (-1 C)
Relative Humidity: 21%
Pressure (altimeter): 30.15 in. Hg (1021 hPa)
ob: SLCB 252000Z 15016G29KT 8000 SCT033 FEW036CB BKN200 22/M01 Q1021
cycle: 20

Station Type Date Time Source
SLCB TAF 2019/08/25 18:59 UTC NOAA

TAF SLCB 251700Z 2518/2618 24012KT 9999 FEW033 FEW036CB TX29/2519Z TN08/2611Z
TEMPO 2519/2521 06012KT
BECMG 2523/2601 14010KT FEW036
BECMG 2603/2605 00000KT

Example: see airport list